Time;durP1;ratioP1;P1;durP2;ratioP2;P2;SDS_P1;SDS_P2;PMS_P1;PMS_P2;Temp;Humidity;BMP_temperature;BMP_pressure;BME280_temperature;BME280_humidity;BME280_pressure;Samples;Min_cycle;Max_cycle;Signal;HPM_P1;HPM_P2
2021/12/26 00:01:44;;;;;;;67.90;24.07;;;;;;;-11.16;77.09;100559.98;1736631;82;21038;-73
2021/12/26 00:04:15;;;;;;;78.33;27.73;;;;;;;-11.16;77.13;100566.30;1736423;82;21473;-73
2021/12/26 00:06:44;;;;;;;63.90;25.23;;;;;;;-11.17;77.09;100567.07;1733763;82;21095;-75
2021/12/26 00:09:11;;;;;;;70.93;25.40;;;;;;;-11.19;77.03;100566.52;1727479;83;21020;-73
2021/12/26 00:11:38;;;;;;;61.00;24.57;;;;;;;-11.20;77.13;100566.05;1727442;83;21110;-73
2021/12/26 00:14:06;;;;;;;65.43;23.87;;;;;;;-11.20;77.14;100570.71;1727590;83;21000;-77
2021/12/26 00:16:33;;;;;;;65.17;23.33;;;;;;;-11.20;77.14;100568.58;1727521;83;21080;-73
2021/12/26 00:19:00;;;;;;;56.20;22.87;;;;;;;-11.20;77.18;100568.58;1727639;83;21024;-73
2021/12/26 00:21:27;;;;;;;61.83;23.67;;;;;;;-11.21;77.05;100569.38;1727565;83;21039;-74
2021/12/26 00:23:57;;;;;;;54.17;22.17;;;;;;;-11.23;77.05;100564.23;1727502;83;21524;-73
2021/12/26 00:26:23;;;;;;;68.10;24.80;;;;;;;-11.23;77.11;100566.76;1727547;83;21051;-73
2021/12/26 00:28:50;;;;;;;58.20;24.10;;;;;;;-11.22;77.09;100568.52;1727558;83;21560;-72
2021/12/26 00:31:17;;;;;;;67.23;25.60;;;;;;;-11.25;77.02;100567.96;1727783;83;20999;-73
2021/12/26 00:33:46;;;;;;;66.30;24.47;;;;;;;-11.26;77.14;100569.13;1727776;83;21075;-73
2021/12/26 00:36:13;;;;;;;67.93;25.53;;;;;;;-11.25;77.08;100564.53;1727555;83;21041;-73
2021/12/26 00:38:41;;;;;;;74.27;24.67;;;;;;;-11.26;76.98;100567.86;1727620;83;21039;-73
2021/12/26 00:41:09;;;;;;;65.57;25.40;;;;;;;-11.31;76.90;100560.02;1727656;83;21131;-73
2021/12/26 00:43:36;;;;;;;60.90;24.60;;;;;;;-11.32;76.96;100557.42;1727813;83;20975;-73
2021/12/26 00:46:04;;;;;;;62.37;24.20;;;;;;;-11.33;76.94;100559.46;1727758;83;21584;-72
2021/12/26 00:48:31;;;;;;;69.43;23.23;;;;;;;-11.33;77.00;100561.63;1727762;83;21121;-73
2021/12/26 00:51:00;;;;;;;62.33;22.83;;;;;;;-11.36;76.95;100555.14;1727625;83;21047;-73
2021/12/26 00:53:28;;;;;;;65.70;21.77;;;;;;;-11.37;76.96;100556.31;1727422;83;21055;-73
2021/12/26 00:55:55;;;;;;;58.47;22.23;;;;;;;-11.39;76.87;100554.95;1727621;83;20992;-73
2021/12/26 00:58:22;;;;;;;61.03;21.73;;;;;;;-11.40;76.92;100552.35;1745891;81;21039;-73
2021/12/26 01:00:50;;;;;;;51.30;20.13;;;;;;;-11.40;76.98;100553.62;1704880;84;21141;-73
2021/12/26 01:03:18;;;;;;;57.13;20.93;;;;;;;-11.41;76.89;100553.16;1757568;81;21458;-73
2021/12/26 01:05:51;;;;;;;57.40;21.37;;;;;;;-11.43;77.00;100550.93;1705301;84;21076;-73
2021/12/26 01:08:25;;;;;;;60.83;22.10;;;;;;;-11.45;76.96;100548.30;1753521;81;21103;-73
2021/12/26 01:11:04;;;;;;;60.43;23.10;;;;;;;-11.45;76.97;100548.30;1752984;81;21027;-73
2021/12/26 01:13:37;;;;;;;57.80;22.53;;;;;;;-11.47;76.93;100549.51;1752031;81;21213;-73
2021/12/26 01:16:12;;;;;;;54.93;21.00;;;;;;;-11.49;76.91;100547.68;1751547;81;20905;-73
2021/12/26 01:18:43;;;;;;;;;;;;;;;-11.49;77.00;100550.20;1755516;81;21071;-73
2021/12/26 01:21:22;;;;;;;45.67;18.48;;;;;;;-11.47;77.10;100546.11;1752992;81;26986;-73
2021/12/26 01:23:55;;;;;;;48.07;18.60;;;;;;;-11.50;77.05;100554.41;1752439;81;21549;-74
2021/12/26 01:26:23;;;;;;;54.97;19.97;;;;;;;-11.52;77.00;100552.18;1752730;81;21914;-73
2021/12/26 01:28:50;;;;;;;52.90;19.40;;;;;;;-11.51;77.10;100558.10;1752772;81;21048;-72
2021/12/26 01:31:19;;;;;;;51.30;20.20;;;;;;;-11.51;77.06;100561.89;1752771;81;21457;-73
2021/12/26 01:33:53;;;;;;;72.82;25.50;;;;;;;-11.52;77.11;100561.44;1752514;81;21527;-73
2021/12/26 01:36:23;;;;;;;65.57;24.07;;;;;;;-11.49;77.25;100559.06;1750540;81;21040;-73
2021/12/26 01:38:59;;;;;;;68.17;23.07;;;;;;;-11.48;77.18;100557.86;1748575;81;21141;-73
2021/12/26 01:41:42;;;;;;;64.87;24.67;;;;;;;-11.50;77.07;100556.03;1749376;81;21083;-73
2021/12/26 01:44:18;;;;;;;64.47;22.80;;;;;;;-11.52;77.06;100561.44;1753224;81;21048;-73
2021/12/26 01:46:49;;;;;;;63.83;21.40;;;;;;;-11.53;77.08;100555.47;1753074;81;20993;-73
2021/12/26 01:49:25;;;;;;;55.47;19.67;;;;;;;-11.54;77.03;100556.28;1752702;81;21079;-73
2021/12/26 01:51:57;;;;;;;54.20;19.03;;;;;;;-11.55;76.91;100563.80;1753258;81;21141;-73
2021/12/26 01:54:31;;;;;;;53.73;19.17;;;;;;;-11.57;76.97;100559.91;1753266;81;21032;-73
2021/12/26 01:56:58;;;;;;;48.70;18.17;;;;;;;-11.58;76.87;100556.91;1752504;81;21008;-72
2021/12/26 01:59:26;;;;;;;56.37;20.73;;;;;;;-11.60;76.79;100553.42;1753156;81;21087;-73
2021/12/26 02:02:00;;;;;;;48.47;19.03;;;;;;;-11.63;76.69;100546.94;1752697;81;21836;-73
2021/12/26 02:04:28;;;;;;;54.37;19.17;;;;;;;-11.67;76.61;100547.14;1753021;81;21151;-73
2021/12/26 02:06:59;;;;;;;42.13;18.00;;;;;;;-11.70;76.57;100544.86;1753059;81;21103;-73
2021/12/26 02:09:28;;;;;;;48.27;17.37;;;;;;;-11.71;76.73;100543.99;1752825;81;21027;-73
2021/12/26 02:11:57;;;;;;;40.23;16.37;;;;;;;-11.73;76.55;100544.69;1753008;81;21064;-73
2021/12/26 02:14:26;;;;;;;47.03;17.57;;;;;;;-11.76;76.64;100547.92;1752924;81;21013;-73
2021/12/26 02:16:58;;;;;;;48.07;18.57;;;;;;;-11.77;76.55;100542.80;1749391;81;22296;-73
2021/12/26 02:19:25;;;;;;;38.60;16.40;;;;;;;-11.76;76.63;100549.58;1752834;81;20993;-73
2021/12/26 02:22:12;;;;;;;54.60;18.83;;;;;;;-11.79;76.59;100548.16;1753010;81;21068;-73
2021/12/26 02:27:33;;;;;;;46.27;17.37;;;;;;;-11.83;76.50;100553.81;1752993;81;21626;-73
2021/12/26 02:30:09;;;;;;;45.90;17.20;;;;;;;-11.87;76.46;100548.16;1752995;81;21080;-73
2021/12/26 02:32:38;;;;;;;51.80;18.80;;;;;;;-11.88;76.68;100544.77;1752751;81;21056;-73
2021/12/26 02:35:06;;;;;;;51.77;19.07;;;;;;;-11.88;76.83;100544.77;1753225;81;21566;-73
2021/12/26 02:37:33;;;;;;;56.23;19.53;;;;;;;-11.84;77.07;100540.31;1752920;81;21078;-75
2021/12/26 02:40:00;;;;;;;54.37;20.60;;;;;;;-11.82;77.16;100545.47;1753359;81;21346;-73
2021/12/26 02:42:27;;;;;;;52.80;19.17;;;;;;;-11.81;77.00;100547.20;1752724;81;21177;-73
2021/12/26 02:44:54;;;;;;;51.33;21.47;;;;;;;-11.83;76.82;100557.61;1753114;81;21024;-73
2021/12/26 02:47:40;;;;;;;61.07;22.13;;;;;;;-11.86;76.75;100558.34;1753015;81;21505;-73
2021/12/26 02:50:13;;;;;;;52.40;20.67;;;;;;;-11.89;76.74;100556.91;1753266;81;21016;-73
2021/12/26 02:52:40;;;;;;;55.57;21.80;;;;;;;-11.88;76.99;100559.94;1753082;81;21067;-73
2021/12/26 02:55:09;;;;;;;52.40;20.80;;;;;;;-11.84;77.25;100556.74;1753250;81;21048;-73
2021/12/26 02:57:37;;;;;;;55.65;22.62;;;;;;;-11.81;77.30;100558.17;1724916;81;20997;-73
2021/12/26 03:00:12;;;;;;;60.30;23.10;;;;;;;-11.78;77.49;100557.07;1753202;81;21040;-73
2021/12/26 03:02:50;;;;;;;53.13;23.87;;;;;;;-11.76;77.29;100552.11;1752898;81;21568;-72
2021/12/26 03:05:17;;;;;;;59.33;24.27;;;;;;;-11.79;77.08;100554.08;1753213;81;21000;-73
2021/12/26 03:07:47;;;;;;;54.30;22.57;;;;;;;-11.82;76.92;100547.59;1752668;81;21129;-73
2021/12/26 03:10:23;;;;;;;55.10;23.98;;;;;;;-11.81;76.96;100550.98;1753041;81;21076;-73
2021/12/26 03:12:54;;;;;;;62.80;23.60;;;;;;;-11.85;76.73;100555.02;1752973;81;21031;-73
2021/12/26 03:15:22;;;;;;;64.50;24.47;;;;;;;-11.88;76.66;100556.15;1753024;81;21001;-73
2021/12/26 03:17:50;;;;;;;66.33;25.07;;;;;;;-11.91;76.57;100553.45;1752770;81;21402;-73
2021/12/26 03:20:22;;;;;;;59.57;23.07;;;;;;;-11.94;76.51;100556.68;1752916;81;21577;-73
2021/12/26 03:22:49;;;;;;;65.63;23.93;;;;;;;-11.94;76.60;100561.73;1752940;81;21553;-73
2021/12/26 03:25:22;;;;;;;56.13;21.17;;;;;;;-11.96;76.63;100559.50;1753040;81;21055;-73
2021/12/26 03:27:51;;;;;;;51.93;21.23;;;;;;;-11.95;76.73;100559.97;1752787;81;21055;-73
2021/12/26 03:30:25;;;;;;;56.20;22.17;;;;;;;-11.96;76.75;100554.45;1753003;81;21047;-73
2021/12/26 03:32:54;;;;;;;56.97;21.57;;;;;;;-11.98;76.64;100561.07;1724983;81;21137;-73
2021/12/26 03:35:24;;;;;;;55.83;21.67;;;;;;;-11.98;76.63;100567.78;1752883;81;20956;-73
2021/12/26 03:37:52;;;;;;;53.63;21.52;;;;;;;-12.00;76.55;100566.82;1752982;81;21012;-73
2021/12/26 03:40:21;;;;;;;56.77;22.13;;;;;;;-12.03;76.37;100564.12;1749149;81;21032;-73
2021/12/26 03:42:51;;;;;;;68.93;23.63;;;;;;;-12.07;76.37;100566.02;1753044;81;21685;-73
2021/12/26 03:45:17;;;;;;;49.97;20.27;;;;;;;-12.07;76.62;100565.63;1753024;81;21181;-73
2021/12/26 03:47:48;;;;;;;48.43;20.00;;;;;;;-12.07;76.62;100566.89;1752888;81;21008;-73
2021/12/26 03:50:13;;;;;;;48.40;20.03;;;;;;;-12.07;76.70;100569.41;1752645;81;21048;-73
2021/12/26 03:52:39;;;;;;;53.27;20.90;;;;;;;-12.07;76.60;100570.67;1724942;81;21031;-73
2021/12/26 03:55:07;;;;;;;58.07;21.53;;;;;;;-12.09;76.62;100562.13;1753311;81;21036;-73
2021/12/26 03:57:34;;;;;;;51.10;20.93;;;;;;;-12.09;76.51;100563.79;1752880;81;21141;-73
2021/12/26 04:00:01;;;;;;;54.07;20.27;;;;;;;-12.12;76.43;100563.23;1725344;81;20993;-73
2021/12/26 04:02:30;;;;;;;52.00;20.73;;;;;;;-12.16;76.38;100565.98;1752827;81;21044;-73
2021/12/26 04:04:57;;;;;;;54.23;22.07;;;;;;;-12.16;76.41;100567.64;1753133;81;20989;-73
2021/12/26 04:07:25;;;;;;;53.63;22.23;;;;;;;-12.16;76.43;100576.09;1723403;81;21020;-73
2021/12/26 04:09:52;;;;;;;48.63;20.43;;;;;;;-12.16;76.51;100575.22;1749197;82;21814;-73
2021/12/26 04:12:19;;;;;;;50.67;21.33;;;;;;;-12.15;76.59;100576.95;1749057;82;21466;-73
2021/12/26 04:14:46;;;;;;;60.90;23.33;;;;;;;-12.15;76.46;100576.95;1757293;81;21461;-73
2021/12/26 04:17:14;;;;;;;66.33;27.30;;;;;;;-12.17;76.42;100577.25;1756912;81;21062;-73
2021/12/26 04:19:41;;;;;;;83.60;30.67;;;;;;;-12.20;76.34;100574.55;1757145;81;21047;-74
2021/12/26 04:22:10;;;;;;;79.20;31.87;;;;;;;-12.20;76.41;100577.95;1756924;81;21184;-73
2021/12/26 04:24:37;;;;;;;67.00;26.97;;;;;;;-12.22;76.42;100573.22;1756945;81;20997;-73
2021/12/26 04:27:05;;;;;;;64.37;27.63;;;;;;;-12.22;76.46;100572.33;1756808;81;21582;-73
2021/12/26 04:29:32;;;;;;;72.50;26.87;;;;;;;-12.21;76.59;100572.83;1756917;81;21048;-73
2021/12/26 04:31:58;;;;;;;72.90;27.77;;;;;;;-12.21;76.50;100577.48;1756868;81;21008;-73
2021/12/26 04:34:25;;;;;;;72.30;28.57;;;;;;;-12.22;76.48;100580.80;1756983;81;21049;-74
2021/12/26 04:36:53;;;;;;;67.60;27.07;;;;;;;-12.23;76.44;100578.17;1756770;81;21259;-73
2021/12/26 04:39:20;;;;;;;73.27;26.50;;;;;;;-12.26;76.34;100578.00;1756966;81;21027;-74
2021/12/26 04:41:48;;;;;;;130.43;49.90;;;;;;;-12.26;76.44;100580.13;1757087;81;21500;-73
2021/12/26 04:44:23;;;;;;;163.50;56.40;;;;;;;-12.23;76.55;100580.70;1753170;81;21051;-73
2021/12/26 04:46:50;;;;;;;;;;;;;;;-12.23;76.49;100580.30;1754599;81;21923;-73
2021/12/26 04:49:22;;;;;;;114.13;38.80;;;;;;;-12.25;76.48;100570.50;1756933;81;20216;-74
2021/12/26 04:51:49;;;;;;;106.57;33.83;;;;;;;-12.26;76.49;100572.95;1757120;81;21429;-73
2021/12/26 04:54:18;;;;;;;89.67;29.80;;;;;;;-12.25;76.57;100570.50;1756869;81;21016;-73
2021/12/26 04:56:45;;;;;;;98.23;32.63;;;;;;;-12.22;76.87;100570.70;1757262;81;21552;-74
2021/12/26 04:59:12;;;;;;;123.77;38.80;;;;;;;-12.18;76.75;100575.52;1756777;81;22045;-75
2021/12/26 05:01:41;;;;;;;97.00;32.10;;;;;;;-12.17;76.73;100578.52;1757051;81;21040;-73
2021/12/26 05:04:10;;;;;;;122.13;41.27;;;;;;;-12.19;76.66;100583.50;1756853;81;21051;-73
2021/12/26 05:06:37;;;;;;;189.63;60.53;;;;;;;-12.21;76.55;100581.27;1731880;81;21055;-73
2021/12/26 05:09:05;;;;;;;120.93;40.90;;;;;;;-12.20;76.69;100581.73;1742910;81;21023;-75
2021/12/26 05:11:33;;;;;;;164.63;55.40;;;;;;;-12.21;76.82;100581.67;1734306;82;21789;-73
2021/12/26 05:14:00;;;;;;;154.07;49.03;;;;;;;-12.19;76.76;100578.81;1734741;82;21038;-73
2021/12/26 05:16:27;;;;;;;117.53;40.13;;;;;;;-12.17;76.84;100577.25;1734456;82;21119;-73
2021/12/26 05:18:54;;;;;;;112.23;37.40;;;;;;;-12.17;76.78;100580.64;1734708;82;21047;-73
2021/12/26 05:21:21;;;;;;;86.57;29.67;;;;;;;-12.18;76.60;100583.10;1734562;82;21585;-73
2021/12/26 05:23:48;;;;;;;75.30;28.43;;;;;;;-12.20;76.46;100579.61;1734651;82;21160;-73
2021/12/26 05:26:15;;;;;;;83.40;29.40;;;;;;;-12.24;76.38;100584.89;1734457;82;21579;-76
2021/12/26 05:28:42;;;;;;;110.20;36.23;;;;;;;-12.25;76.39;100581.86;1734643;82;21028;-73
2021/12/26 05:31:10;;;;;;;116.87;42.77;;;;;;;-12.26;76.33;100581.80;1734548;82;21078;-74
2021/12/26 05:33:42;;;;;;;119.70;42.77;;;;;;;-12.29;76.31;100582.48;1734648;82;21035;-74
2021/12/26 05:36:09;;;;;;;91.10;35.50;;;;;;;-12.31;76.27;100589.09;1734517;82;21963;-73
2021/12/26 05:38:38;;;;;;;75.13;29.13;;;;;;;-12.30;76.37;100592.48;1734574;82;21058;-73
2021/12/26 05:41:05;;;;;;;76.77;28.07;;;;;;;-12.31;76.27;100593.28;1734627;82;21023;-73
2021/12/26 05:43:34;;;;;;;66.93;24.97;;;;;;;-12.32;76.25;100591.55;1735031;82;21088;-73
2021/12/26 05:46:01;;;;;;;54.00;23.10;;;;;;;-12.36;76.18;100591.75;1734481;82;21135;-73
2021/12/26 05:48:29;;;;;;;60.27;22.50;;;;;;;-12.35;76.29;100596.03;1734644;82;21182;-73
2021/12/26 05:50:57;;;;;;;51.53;20.67;;;;;;;-12.38;76.21;100596.73;1734434;82;20977;-73
2021/12/26 05:53:29;;;;;;;53.37;21.13;;;;;;;-12.39;76.14;100596.23;1678293;82;21032;-72
2021/12/26 05:55:56;;;;;;;58.00;21.67;;;;;;;-12.39;76.16;100597.89;1734488;82;21023;-73
2021/12/26 05:58:23;;;;;;;55.73;22.27;;;;;;;-12.41;76.17;100598.22;1734758;82;21047;-72
2021/12/26 06:00:51;;;;;;;58.03;20.80;;;;;;;-12.41;76.29;100599.08;1734490;82;21125;-73
2021/12/26 06:03:19;;;;;;;51.93;20.90;;;;;;;-12.40;76.41;100603.73;1734678;82;20979;-72
2021/12/26 06:05:47;;;;;;;65.83;25.30;;;;;;;-12.40;76.34;100603.34;1734426;82;21039;-73
2021/12/26 06:08:15;;;;;;;60.20;23.07;;;;;;;-12.41;76.33;100604.53;1738554;81;21202;-72
2021/12/26 06:10:42;;;;;;;64.07;24.73;;;;;;;-12.39;76.66;100601.67;1763402;81;21612;-73
2021/12/26 06:13:09;;;;;;;62.10;22.17;;;;;;;-12.41;76.47;100601.61;1763801;81;21736;-72
2021/12/26 06:15:36;;;;;;;58.50;21.43;;;;;;;-12.38;76.48;100604.70;1733245;81;21035;-72
2021/12/26 06:18:03;;;;;;;57.83;20.90;;;;;;;-12.41;76.40;100605.39;1763652;81;21094;-74
2021/12/26 06:20:44;;;;;;;;;;;;;;;-12.40;76.44;100602.47;1721162;81;21539;-73
2021/12/26 06:23:29;;;;;;;44.57;16.37;;;;;;;-12.40;76.40;100605.86;1733298;82;20541;-76
2021/12/26 06:26:15;;;;;;;46.83;18.27;;;;;;;-12.41;76.55;100601.61;1732972;82;21183;-76
2021/12/26 06:28:44;;;;;;;52.23;19.07;;;;;;;-12.41;76.40;100603.27;1733274;82;21539;-73
2021/12/26 06:31:17;;;;;;;49.93;19.23;;;;;;;-12.33;76.51;100603.69;1679269;82;21734;-73
2021/12/26 06:34:03;;;;;;;51.27;19.57;;;;;;;-12.30;76.94;100605.12;1733130;82;21051;-73
2021/12/26 06:36:37;;;;;;;80.30;30.73;;;;;;;-12.26;77.17;100603.27;1687144;82;21401;-73
2021/12/26 06:39:22;;;;;;;61.37;23.90;;;;;;;-12.24;76.96;100610.55;1733251;82;21131;-74
2021/12/26 06:42:08;;;;;;;66.53;24.20;;;;;;;-12.31;76.26;100614.75;1733179;82;21042;-74
2021/12/26 06:44:38;;;;;;;77.85;29.42;;;;;;;-12.42;75.86;100616.26;1733502;82;21046;-74
2021/12/26 06:47:07;;;;;;;157.40;56.70;;;;;;;-12.47;76.09;100612.63;1732188;82;21035;-74
2021/12/26 06:49:37;;;;;;;176.27;63.23;;;;;;;-12.49;76.12;100614.58;1733347;82;21094;-74
2021/12/26 06:52:05;;;;;;;191.50;65.50;;;;;;;-12.53;76.07;100608.84;1732949;82;21532;-74
2021/12/26 06:54:33;;;;;;;187.93;66.63;;;;;;;-12.55;76.11;100611.30;1733489;82;21019;-74
2021/12/26 06:57:00;;;;;;;147.80;56.50;;;;;;;-12.56;76.01;100613.72;1732965;82;21090;-74
2021/12/26 06:59:27;;;;;;;126.37;45.03;;;;;;;-12.60;75.89;100616.47;1733303;82;21018;-74
2021/12/26 07:01:55;;;;;;;121.50;44.40;;;;;;;-12.63;75.88;100613.77;1733010;82;21038;-74
2021/12/26 07:04:24;;;;;;;101.13;38.80;;;;;;;-12.66;75.81;100623.69;1733280;82;21121;-74
2021/12/26 07:06:51;;;;;;;111.90;38.80;;;;;;;-12.71;75.82;100623.80;1733000;82;21008;-74
2021/12/26 07:09:23;;;;;;;101.70;38.40;;;;;;;-12.74;75.95;100623.22;1730699;82;21520;-74
2021/12/26 07:11:50;;;;;;;115.13;38.40;;;;;;;-12.71;76.05;100636.42;1711862;83;21067;-75
2021/12/26 07:14:19;;;;;;;142.13;51.50;;;;;;;-12.67;76.41;100638.33;1733615;81;20992;-77
2021/12/26 07:16:46;;;;;;;132.57;45.27;;;;;;;-12.69;76.06;100643.31;1729254;83;21181;-76
2021/12/26 07:19:13;;;;;;;121.07;42.63;;;;;;;-12.72;75.95;100639.70;1699713;84;21067;-77
2021/12/26 07:21:41;;;;;;;126.77;42.83;;;;;;;-12.75;75.88;100636.61;1729268;83;21012;-76
2021/12/26 07:24:10;;;;;;;141.95;48.15;;;;;;;-12.76;75.95;100640.31;1729385;83;21548;-78
2021/12/26 07:26:37;;;;;;;141.77;46.53;;;;;;;-12.74;76.16;100645.94;1704788;83;20996;-75
2021/12/26 07:29:12;;;;;;;127.63;44.90;;;;;;;-12.71;76.26;100647.78;1729169;83;21341;-75
2021/12/26 07:31:41;;;;;;;107.27;39.10;;;;;;;-12.65;76.32;100652.79;1700016;83;20955;-75
2021/12/26 07:34:08;;;;;;;105.23;39.63;;;;;;;-12.65;76.32;100652.79;1729054;82;21036;-79
2021/12/26 07:36:36;;;;;;;104.83;37.47;;;;;;;-12.54;77.01;100651.30;1729297;83;21051;-76
2021/12/26 07:39:20;;;;;;;78.93;30.63;;;;;;;-12.54;77.01;100651.30;1699247;83;21102;-74
2021/12/26 07:41:47;;;;;;;78.17;32.30;;;;;;;-12.45;77.26;100652.70;1729429;83;21191;-75
2021/12/26 07:44:15;;;;;;;75.23;31.30;;;;;;;-12.39;77.35;100649.66;1724933;83;21019;-75
2021/12/26 07:47:02;;;;;;;80.00;31.30;;;;;;;-12.31;77.58;100648.86;1699772;84;21030;-75
2021/12/26 07:49:30;;;;;;;70.77;28.23;;;;;;;-12.23;77.49;100648.52;1729097;83;21087;-76
2021/12/26 07:52:19;;;;;;;74.63;29.33;;;;;;;-12.19;77.43;100652.98;1729283;83;21552;-76
2021/12/26 07:55:03;;;;;;;72.23;27.93;;;;;;;-12.13;77.49;100649.93;1729278;83;21154;-74
2021/12/26 07:57:48;;;;;;;61.87;24.13;;;;;;;-12.08;77.56;100654.86;1729197;83;20989;-75
2021/12/26 08:00:35;;;;;;;58.20;22.20;;;;;;;-12.01;77.81;100657.34;1729152;83;20947;-74
2021/12/26 08:03:03;;;;;;;59.95;25.70;;;;;;;-11.91;78.03;100651.63;1695324;83;21066;-77
2021/12/26 08:05:35;;;;;;;58.23;23.70;;;;;;;-11.82;78.14;100645.32;1663831;83;21022;-73
2021/12/26 08:08:13;;;;;;;58.10;22.87;;;;;;;-11.75;78.27;100648.28;1714096;82;21548;-77
2021/12/26 08:10:40;;;;;;;58.70;22.97;;;;;;;-11.63;78.46;100648.09;1732262;82;21039;-76
2021/12/26 08:13:07;;;;;;;62.50;24.97;;;;;;;-11.52;78.69;100642.36;1733343;82;21473;-76
2021/12/26 08:15:34;;;;;;;56.80;22.83;;;;;;;-11.40;78.85;100653.14;1733015;82;21066;-76
2021/12/26 08:18:00;;;;;;;58.17;23.47;;;;;;;-11.29;78.93;100649.53;1733453;82;21158;-76
2021/12/26 08:20:27;;;;;;;61.50;23.83;;;;;;;-11.20;78.89;100653.35;1732870;82;21123;-76
2021/12/26 08:22:57;;;;;;;59.13;22.97;;;;;;;-11.17;78.80;100649.32;1733274;82;20996;-77
2021/12/26 08:25:24;;;;;;;68.80;25.80;;;;;;;-11.10;78.79;100647.61;1733086;81;21539;-76
2021/12/26 08:27:51;;;;;;;95.30;38.27;;;;;;;-11.06;78.67;100641.04;1749962;81;22161;-76
2021/12/26 08:30:18;;;;;;;236.77;92.97;;;;;;;-10.98;78.83;100640.19;1762981;81;21087;-77
2021/12/26 08:32:49;;;;;;;150.20;61.60;;;;;;;-10.89;78.96;100643.20;1763529;81;21111;-76
2021/12/26 08:35:13;;;;;;;137.87;54.87;;;;;;;-10.79;79.05;100642.90;1762464;81;21055;-78
2021/12/26 08:37:46;;;;;;;137.17;52.57;;;;;;;-10.69;79.12;100637.53;1763478;81;21059;-73
2021/12/26 08:40:15;;;;;;;130.50;54.60;;;;;;;-10.62;79.10;100638.30;1756945;81;21012;-76
2021/12/26 08:42:43;;;;;;;137.97;59.03;;;;;;;-10.52;79.15;100632.46;1737836;81;21572;-74
2021/12/26 08:45:11;;;;;;;110.87;49.33;;;;;;;-10.44;79.28;100635.86;1760428;81;22037;-73
2021/12/26 08:47:39;;;;;;;145.90;59.83;;;;;;;-10.32;79.48;100636.86;1763427;81;21036;-73
2021/12/26 08:50:09;;;;;;;105.60;41.87;;;;;;;-10.18;79.78;100636.25;1763192;81;21047;-75
2021/12/26 08:52:38;;;;;;;75.45;31.20;;;;;;;-10.01;80.08;100630.34;1763869;81;21817;-79
2021/12/26 08:55:07;;;;;;;81.67;33.97;;;;;;;-9.81;80.28;100626.64;1763263;81;22267;-76
2021/12/26 08:57:35;;;;;;;68.27;29.67;;;;;;;-9.62;80.45;100628.39;1763323;81;21954;-78
2021/12/26 09:00:07;;;;;;;88.27;38.47;;;;;;;-9.45;80.62;100625.87;1763186;81;21588;-76
2021/12/26 09:02:35;;;;;;;76.00;32.63;;;;;;;-9.24;80.83;100629.78;1763493;81;21058;-76
2021/12/26 09:05:04;;;;;;;71.23;30.47;;;;;;;-9.03;81.02;100630.31;1758216;81;21043;-75
2021/12/26 09:07:31;;;;;;;69.03;28.83;;;;;;;-8.83;81.13;100626.98;1763374;81;21102;-78
2021/12/26 09:10:00;;;;;;;68.47;29.13;;;;;;;-8.60;81.40;100626.71;1763255;81;21066;-75
2021/12/26 09:12:28;;;;;;;71.50;30.00;;;;;;;-8.38;81.48;100623.39;1763442;81;21508;-73
2021/12/26 09:14:56;;;;;;;78.23;33.73;;;;;;;-8.17;81.57;100625.98;1763498;81;21023;-74
2021/12/26 09:17:24;;;;;;;73.20;32.53;;;;;;;-7.96;81.61;100622.17;1763399;81;21027;-75
2021/12/26 09:19:51;;;;;;;68.30;29.53;;;;;;;-7.75;81.55;100628.55;1763500;81;21063;-77
2021/12/26 09:22:18;;;;;;;78.00;35.50;;;;;;;-7.54;81.64;100628.92;1763258;81;21143;-78
2021/12/26 09:24:46;;;;;;;63.73;29.20;;;;;;;-7.33;81.62;100628.49;1763396;81;21048;-81
2021/12/26 09:27:16;;;;;;;54.70;26.63;;;;;;;-7.14;81.62;100629.20;1763259;81;21054;-79
2021/12/26 09:29:43;;;;;;;55.10;26.83;;;;;;;-6.93;81.58;100641.86;1763865;81;21043;-78
2021/12/26 09:32:10;;;;;;;64.77;27.57;;;;;;;-6.73;81.58;100648.59;1763373;81;21058;-75
2021/12/26 09:34:37;;;;;;;58.70;27.10;;;;;;;-6.54;81.49;100647.55;1763388;81;21093;-79
2021/12/26 09:37:09;;;;;;;56.13;25.40;;;;;;;-6.38;81.33;100646.00;1763379;81;21063;-78
2021/12/26 09:39:37;;;;;;;58.00;26.77;;;;;;;-6.22;81.14;100647.83;1762939;81;22093;-77
2021/12/26 09:42:06;;;;;;;59.23;26.60;;;;;;;-6.10;80.98;100650.78;1763387;81;20952;-82
2021/12/26 09:44:35;;;;;;;56.10;26.67;;;;;;;-5.95;80.94;100642.80;1763733;81;21073;-77
2021/12/26 09:47:05;;;;;;;65.37;30.40;;;;;;;-5.83;80.79;100641.88;1763761;81;21171;-77
2021/12/26 09:49:32;;;;;;;59.30;26.67;;;;;;;-5.69;80.60;100644.47;1763307;81;21040;-78
2021/12/26 09:51:59;;;;;;;63.10;28.23;;;;;;;-5.59;80.46;100640.55;1763765;81;21011;-84
2021/12/26 09:54:26;;;;;;;55.43;26.73;;;;;;;-5.48;80.32;100641.75;1763939;81;21576;-84
2021/12/26 09:56:53;;;;;;;57.37;27.40;;;;;;;-5.35;80.19;100642.12;1763574;81;21627;-77
2021/12/26 09:59:22;;;;;;;65.87;29.50;;;;;;;-5.21;80.24;100639.58;1763396;81;21964;-80
2021/12/26 10:01:53;;;;;;;61.53;30.68;;;;;;;-5.09;80.09;100636.13;1763625;81;21485;-81
2021/12/26 10:04:31;;;;;;;64.35;28.70;;;;;;;-4.94;80.17;100644.66;1763418;81;21051;-83
2021/12/26 10:07:02;;;;;;;61.40;28.60;;;;;;;-4.84;79.80;100642.83;1763610;81;21505;-75
2021/12/26 10:09:30;;;;;;;59.30;28.53;;;;;;;-4.72;79.72;100638.05;1763485;81;21500;-80
2021/12/26 10:12:00;;;;;;;59.40;29.40;;;;;;;-4.61;79.52;100632.39;1763368;81;22023;-78
2021/12/26 10:14:32;;;;;;;64.47;30.40;;;;;;;-4.51;79.36;100627.98;1763501;81;21051;-81
2021/12/26 10:17:08;;;;;;;83.00;33.60;;;;;;;-4.39;79.32;100618.50;1763343;81;21098;-78
2021/12/26 10:19:39;;;;;;;61.10;27.00;;;;;;;-4.28;79.23;100618.37;1763529;81;21067;-74
2021/12/26 10:22:08;;;;;;;63.83;32.03;;;;;;;-4.14;79.20;100621.29;1763366;81;21039;-72
2021/12/26 10:24:40;;;;;;;61.60;29.67;;;;;;;-4.02;79.13;100624.57;1763294;81;21127;-78
2021/12/26 10:27:18;;;;;;;63.90;29.47;;;;;;;-3.92;78.98;100619.72;1763186;81;20988;-76
2021/12/26 10:29:52;;;;;;;55.80;27.50;;;;;;;-3.84;78.85;100619.92;1763502;81;21011;-78
2021/12/26 10:32:28;;;;;;;61.60;28.67;;;;;;;-3.79;78.84;100618.77;1763430;81;21099;-76
2021/12/26 10:35:03;;;;;;;59.03;27.80;;;;;;;-3.67;78.76;100618.62;1763528;81;20996;-75
2021/12/26 10:37:42;;;;;;;51.30;25.17;;;;;;;-3.61;78.54;100620.05;1763367;81;21151;-79
2021/12/26 10:40:21;;;;;;;52.13;25.73;;;;;;;-3.55;78.32;100620.61;1763430;81;21019;-72
2021/12/26 10:42:53;;;;;;;43.80;22.67;;;;;;;-3.42;78.50;100621.77;1763318;81;21595;-79
2021/12/26 10:45:27;;;;;;;48.53;24.07;;;;;;;-3.32;78.05;100626.71;1763607;81;21579;-74
2021/12/26 10:48:08;;;;;;;50.40;23.67;;;;;;;-3.34;77.82;100621.53;1758596;81;21563;-88
2021/12/26 10:50:40;;;;;;;48.30;22.77;;;;;;;-3.30;77.65;100623.74;1762451;81;21080;-75
2021/12/26 10:53:14;;;;;;;53.33;24.53;;;;;;;-3.19;78.19;100621.00;1748877;82;21014;-78
2021/12/26 10:55:52;;;;;;;48.47;23.43;;;;;;;-3.04;77.91;100613.66;1751698;81;21059;-74
2021/12/26 10:58:21;;;;;;;45.87;22.97;;;;;;;-3.01;77.49;100613.72;1745776;81;21055;-79
2021/12/26 11:00:56;;;;;;;50.55;22.98;;;;;;;-2.98;77.55;100615.06;1724961;81;21570;-75
2021/12/26 11:03:27;;;;;;;45.40;22.53;;;;;;;-2.83;77.57;100613.66;1722223;81;22564;-74
2021/12/26 11:06:03;;;;;;;47.30;23.90;;;;;;;-2.80;77.34;100611.14;1736959;81;21461;-74
2021/12/26 11:08:41;;;;;;;43.83;22.83;;;;;;;-2.71;77.56;100612.64;1734200;81;21008;-76
2021/12/26 11:11:16;;;;;;;46.47;22.93;;;;;;;-2.58;77.58;100621.42;1741703;81;20909;-76
2021/12/26 11:13:44;;;;;;;55.53;27.40;;;;;;;-2.47;77.55;100619.55;1724510;83;21046;-74
2021/12/26 11:16:15;;;;;;;54.20;25.37;;;;;;;-2.33;77.57;100615.06;1725120;83;21216;-75
2021/12/26 11:18:45;;;;;;;49.47;24.07;;;;;;;-2.18;77.32;100614.50;1737967;82;21040;-73